createdAt,value
2017-06-24T00:01:01.847Z,0
2017-06-24T00:11:01.841Z,0
2017-06-24T00:21:01.887Z,0
2017-06-24T00:31:01.859Z,0
2017-06-24T00:41:01.836Z,0
2017-06-24T00:51:01.866Z,0
2017-06-24T01:01:01.820Z,0
2017-06-24T01:11:01.790Z,0
2017-06-24T01:21:01.828Z,0
2017-06-24T01:31:01.802Z,0
2017-06-24T01:41:01.874Z,0
2017-06-24T01:51:01.869Z,0
2017-06-24T02:01:01.792Z,0
2017-06-24T02:11:01.875Z,0
2017-06-24T02:21:01.810Z,0
2017-06-24T02:31:01.877Z,0
2017-06-24T02:41:01.831Z,0
2017-06-24T02:51:01.806Z,0
2017-06-24T03:01:01.859Z,0
2017-06-24T03:11:01.812Z,0
2017-06-24T03:21:01.796Z,0
2017-06-24T03:31:01.824Z,5
2017-06-24T03:41:01.816Z,5
2017-06-24T03:51:01.861Z,10
2017-06-24T04:01:01.770Z,15
2017-06-24T04:11:01.779Z,25
2017-06-24T04:21:01.859Z,45
2017-06-24T04:31:01.830Z,50
2017-06-24T04:41:01.884Z,35
2017-06-24T04:51:01.837Z,90
2017-06-24T05:01:01.804Z,60
2017-06-24T05:11:01.851Z,40
2017-06-24T05:21:01.846Z,60
2017-06-24T05:31:02.003Z,110
2017-06-24T05:41:01.837Z,115
2017-06-24T05:51:01.832Z,100
2017-06-24T06:01:01.882Z,90
2017-06-24T06:11:01.844Z,70
2017-06-24T06:21:01.772Z,80
2017-06-24T06:31:01.835Z,110
2017-06-24T06:41:01.841Z,140
2017-06-24T06:51:01.877Z,275
2017-06-24T07:01:01.868Z,165
2017-06-24T07:11:01.811Z,165
2017-06-24T07:21:01.878Z,195
2017-06-24T07:31:01.863Z,295
2017-06-24T07:41:01.883Z,245
2017-06-24T07:51:01.828Z,140
2017-06-24T08:01:01.859Z,205
2017-06-24T08:11:01.904Z,235
2017-06-24T08:21:01.891Z,175
2017-06-24T08:31:01.925Z,195
2017-06-24T08:41:02.480Z,270
2017-06-24T08:51:01.823Z,375
2017-06-24T09:01:02.073Z,155
2017-06-24T09:11:01.884Z,140
2017-06-24T09:21:01.917Z,130
2017-06-24T09:31:03.463Z,150
2017-06-24T09:41:02.866Z,220
2017-06-24T09:51:02.021Z,145
2017-06-24T10:01:01.982Z,145
2017-06-24T10:11:01.949Z,150
2017-06-24T10:21:01.847Z,155
2017-06-24T10:31:01.910Z,130
2017-06-24T10:41:01.924Z,170
2017-06-24T10:51:01.874Z,175
2017-06-24T11:01:01.831Z,240
2017-06-24T11:11:01.876Z,255
2017-06-24T11:21:01.864Z,180
2017-06-24T11:31:02.114Z,190
2017-06-24T11:41:09.043Z,170
2017-06-24T11:51:01.934Z,185
2017-06-24T12:01:01.992Z,120
2017-06-24T12:11:01.832Z,125
2017-06-24T12:21:01.809Z,105
2017-06-24T12:31:01.864Z,135
2017-06-24T12:41:01.986Z,105
2017-06-24T12:51:01.876Z,100
2017-06-24T13:01:01.850Z,105
2017-06-24T13:11:01.908Z,95
2017-06-24T13:21:01.829Z,85
2017-06-24T13:31:01.819Z,65
2017-06-24T13:41:01.881Z,60
2017-06-24T13:51:02.226Z,100
2017-06-24T14:01:01.873Z,115
2017-06-24T14:11:02.081Z,140
2017-06-24T14:21:01.863Z,135
2017-06-24T14:31:01.907Z,120
2017-06-24T14:41:01.900Z,160
2017-06-24T14:51:01.833Z,175
2017-06-24T15:01:01.876Z,130
2017-06-24T15:11:01.859Z,110
2017-06-24T15:21:01.833Z,90
2017-06-24T15:31:02.180Z,115
2017-06-24T15:41:01.893Z,135
2017-06-24T15:51:01.845Z,135
2017-06-24T16:01:02.294Z,150
2017-06-24T16:11:02.267Z,135
2017-06-24T16:21:02.106Z,100
2017-06-24T16:31:02.490Z,110
2017-06-24T16:41:02.231Z,90
2017-06-24T16:51:01.842Z,75
2017-06-24T17:01:02.171Z,100
2017-06-24T17:11:01.877Z,120
2017-06-24T17:21:02.105Z,100
2017-06-24T17:31:02.523Z,65
2017-06-24T17:41:02.321Z,75
2017-06-24T17:51:02.963Z,45
2017-06-24T18:01:02.041Z,45
2017-06-24T18:11:01.976Z,25
2017-06-24T18:21:01.881Z,15
2017-06-24T18:31:01.881Z,20
2017-06-24T18:41:02.087Z,15
2017-06-24T18:51:01.932Z,20
2017-06-24T19:01:01.878Z,10
2017-06-24T19:11:01.905Z,5
2017-06-24T19:21:01.886Z,5
2017-06-24T19:31:01.891Z,5
2017-06-24T19:41:01.877Z,0
2017-06-24T19:51:02.026Z,0
2017-06-24T20:01:02.028Z,0
2017-06-24T20:11:01.969Z,0
2017-06-24T20:21:01.990Z,0
2017-06-24T20:31:02.054Z,0
2017-06-24T20:41:02.063Z,0
2017-06-24T20:51:01.894Z,0
2017-06-24T21:01:02.197Z,0
2017-06-24T21:11:02.038Z,0
2017-06-24T21:21:01.905Z,0
2017-06-24T21:31:01.900Z,0
2017-06-24T21:41:01.920Z,0
2017-06-24T21:51:01.987Z,0
2017-06-24T22:01:02.093Z,0
2017-06-24T22:11:01.886Z,0
2017-06-24T22:21:01.904Z,0
2017-06-24T22:31:01.922Z,0
2017-06-24T22:41:01.906Z,0
2017-06-24T22:51:01.999Z,0
2017-06-24T23:01:01.887Z,0
2017-06-24T23:11:01.867Z,0
2017-06-24T23:21:01.886Z,0
2017-06-24T23:31:01.960Z,0
2017-06-24T23:41:01.932Z,0
2017-06-24T23:51:01.941Z,0
